Home > Products > Valid Products > TAF

000
FTUS44 KSJT 261700
TAFABI
TAF
KABI 261724Z 2618/2718 36011KT P6SM SKC
     FM270000 06005KT P6SM SKC
     FM271400 15008KT P6SM SKC=



000
FTUS44 KSJT 261700
TAFSJT
TAF
KSJT 261724Z 2618/2718 35011KT P6SM SKC
     FM270100 05005KT P6SM SKC
     FM271600 15007KT P6SM SKC=



000
FTUS44 KSJT 261700
TAFJCT
TAF
KJCT 261724Z 2618/2718 29008KT P6SM SKC
     FM262100 01007KT P6SM SKC
     FM270100 VRB04KT P6SM SKC=



000
FTUS44 KSJT 261100
TAFSJT
TAF
KSJT 261137Z 2612/2712 24010KT P6SM FEW200
     FM261600 28010KT P6SM SKC
     FM262100 01011KT P6SM SKC
     FM270300 05005KT P6SM SKC=



000
FTUS44 KSJT 261100
TAFJCT
TAF
KJCT 261137Z 2612/2712 VRB03KT P6SM SKC
     FM261600 27008KT P6SM SKC
     FM262200 01005KT P6SM SKC=



000
FTUS44 KSJT 261100
TAFABI
TAF
KABI 261137Z 2612/2712 24011KT P6SM FEW200
     FM261500 33011KT P6SM SKC
     FM261800 36011KT P6SM SKC
     FM270000 07006KT P6SM SKC=



000
FTUS44 KSJT 260500
TAFSJT
TAF
KSJT 260522Z 2606/2706 22008KT P6SM FEW200
     FM261600 28010KT P6SM SKC
     FM262000 33010KT P6SM SKC=



000
FTUS44 KSJT 260500
TAFJCT
TAF
KJCT 260522Z 2606/2706 VRB03KT P6SM SKC
     FM261800 30008KT P6SM SKC=



000
FTUS44 KSJT 260500
TAFABI
TAF
KABI 260522Z 2606/2706 22011KT P6SM FEW200
     FM261500 33009KT P6SM SKC
     FM261800 36014KT P6SM SKC=



000
FTUS44 KSJT 252300
TAFSJT
TAF
KSJT 252332Z 2600/2624 24011KT P6SM FEW200
     FM261500 28010KT P6SM SKC
     FM262000 33009KT P6SM SKC=



000
FTUS44 KSJT 252300
TAFJCT
TAF
KJCT 252332Z 2600/2624 26009KT P6SM SKC
     FM260200 VRB03KT P6SM SKC
     FM261800 28008KT P6SM SKC=



000
FTUS44 KSJT 252300
TAFABI
TAF
KABI 252332Z 2600/2624 23011KT P6SM FEW200
     FM261500 33009KT P6SM SKC=



000
FTUS44 KSJT 251700
TAFABI
TAF
KABI 251732Z 2518/2618 VRB06KT P6SM SKC=



000
FTUS44 KSJT 251700
TAFSJT
TAF
KSJT 251732Z 2518/2618 VRB06KT P6SM SKC=



000
FTUS44 KSJT 251700
TAFJCT
TAF
KJCT 251732Z 2518/2618 VRB06KT P6SM SKC=



000
FTUS44 KSJT 251100
TAFJCT
TAF
KJCT 251120Z 2512/2612 VRB03KT P6SM FEW250
     FM252000 27008KT P6SM FEW250=



000
FTUS44 KSJT 251100
TAFSJT
TAF
KSJT 251120Z 2512/2612 26005KT P6SM FEW250
     FM251400 31010KT P6SM FEW250
     FM252300 22011KT P6SM FEW250=



000
FTUS44 KSJT 251100
TAFABI
TAF
KABI 251120Z 2512/2612 33010KT P6SM FEW080
     FM252200 22011KT P6SM FEW250=



000
FTUS44 KSJT 250500
TAFABI
TAF
KABI 250520Z 2506/2606 16005KT P6SM FEW080
     FM251200 32010KT P6SM SKC=



000
FTUS44 KSJT 250500
TAFSJT
TAF
KSJT 250520Z 2506/2606 16005KT P6SM FEW250
     FM251600 30010KT P6SM SKC=



000
FTUS44 KSJT 250500
TAFJCT
TAF
KJCT 250520Z 2506/2606 VRB03KT P6SM FEW250=



000
FTUS44 KSJT 242300
TAFSJT
TAF
KSJT 242320Z 2500/2524 VRB04KT P6SM FEW250
     FM251700 32010KT P6SM SKC=



000
FTUS44 KSJT 242300
TAFABI
TAF
KABI 242320Z 2500/2524 VRB04KT P6SM FEW250
     FM251500 32010KT P6SM SKC=



000
FTUS44 KSJT 242300
TAFJCT
TAF
KJCT 242320Z 2500/2524 VRB03KT P6SM SCT250=



000
FTUS44 KSJT 241700
TAFJCT
TAF
KJCT 241721Z 2418/2518 VRB03KT P6SM SCT250=



000
FTUS44 KSJT 241700
TAFSJT
TAF
KSJT 241721Z 2418/2518 VRB04KT P6SM FEW250
     FM251700 32010KT P6SM SKC=



000
FTUS44 KSJT 241700
TAFABI
TAF
KABI 241721Z 2418/2518 VRB06KT P6SM FEW250
     FM251500 32010KT P6SM SKC=



000
FTUS44 KSJT 241100
TAFSJT
TAF
KSJT 241120Z 2412/2512 29006KT P6SM FEW250
     FM241800 VRB04KT P6SM FEW250=



000
FTUS44 KSJT 241100
TAFABI
TAF
KABI 241120Z 2412/2512 31006KT P6SM FEW250
     FM241800 VRB06KT P6SM FEW250=



000
FTUS44 KSJT 241100
TAFJCT
TAF
KJCT 241120Z 2412/2512 VRB03KT P6SM FEW250=



000
FTUS44 KSJT 240500
TAFSJT
TAF
KSJT 240523Z 2406/2506 31006KT P6SM FEW120
     FM241900 VRB04KT P6SM FEW200=



000
FTUS44 KSJT 240500
TAFJCT
TAF
KJCT 240523Z 2406/2506 34008KT P6SM SKC
     FM241000 VRB03KT P6SM FEW200=



000
FTUS44 KSJT 240500
TAFABI
TAF
KABI 240523Z 2406/2506 31006KT P6SM FEW200
     FM242200 VRB05KT P6SM FEW200=



000
FTUS44 KSJT 232300
TAFABI
TAF
KABI 232326Z 2400/2424 33014G23KT P6SM FEW120
     FM240300 32010KT P6SM FEW120
     FM241400 27005KT P6SM SKC
     FM242100 23006KT P6SM SKC=



000
FTUS44 KSJT 232300
TAFSJT
TAF
KSJT 232326Z 2400/2424 32013G19KT P6SM FEW120
     FM240200 35012KT P6SM FEW120
     FM240800 30006KT P6SM SKC
     FM241900 22005KT P6SM SKC=



000
FTUS44 KSJT 232300
TAFJCT
TAF
KJCT 232326Z 2400/2424 29010KT P6SM FEW200
     FM240200 34009KT P6SM SKC
     FM241000 VRB04KT P6SM SKC=



    US Dept of Commerce
    National Oceanic and Atmospheric Administration
    National Weather Service
    1325 East West Highway
    Silver Spring, MD 20910
    Page Author: NWS Internet Services Team
Disclaimer
Information Quality
Credits
Glossary
Privacy Policy
Freedom of Information Act (FOIA)
About Us
Career Opportunities